Time,TemperatureF,DewpointF,PressureIn,WindDirection,WindDirectionDegrees,WindSpeedMPH,WindSpeedGustMPH,Humidity,HourlyPrecipIn,Conditions,Clouds,dailyrainin,SolarRadiationWatts/m^2,SoftwareType,DateUTC
2013-12-08 00:02:00,26.0,23.0,-100.00,SE,133,5.0,8.0,88,0.00,,,0.00,1.000000,,2013-12-08 09:02:00,
2013-12-08 00:11:00,26.0,23.0,-100.00,SE,133,5.0,8.0,88,0.00,,,0.00,1.000000,,2013-12-08 09:11:00,
2013-12-08 00:21:00,26.0,23.0,-100.00,SE,133,5.0,8.0,88,0.00,,,0.00,1.000000,,2013-12-08 09:21:00,
2013-12-08 00:53:00,24.0,20.0,-100.00,SW,217,4.0,8.0,85,0.00,,,0.00,1.000000,,2013-12-08 09:53:00,
2013-12-08 01:03:00,24.0,20.0,-100.00,SW,217,4.0,8.0,85,0.00,,,0.00,1.000000,,2013-12-08 10:03:00,
2013-12-08 01:12:00,24.0,20.0,-100.00,SW,217,4.0,8.0,85,0.00,,,0.00,1.000000,,2013-12-08 10:12:00,
2013-12-08 01:22:00,24.0,20.0,-100.00,SW,217,4.0,8.0,85,0.00,,,0.00,1.000000,,2013-12-08 10:22:00,
2013-12-08 01:53:00,23.0,21.0,-100.00,SSE,151,6.0,7.0,91,0.00,,,0.00,1.000000,,2013-12-08 10:53:00,
2013-12-08 02:02:00,23.0,21.0,-100.00,SSE,151,6.0,7.0,91,0.00,,,0.00,1.000000,,2013-12-08 11:02:00,
2013-12-08 02:12:00,23.0,21.0,-100.00,SSE,151,6.0,7.0,91,0.00,,,0.00,1.000000,,2013-12-08 11:12:00,
2013-12-08 02:22:00,23.0,21.0,-100.00,SSE,151,6.0,7.0,91,0.00,,,0.00,1.000000,,2013-12-08 11:22:00,
2013-12-08 02:52:00,27.0,25.0,-100.00,SE,143,5.0,9.0,91,0.00,,,-99.99,1.000000,,2013-12-08 11:52:00,
2013-12-08 03:02:00,27.0,25.0,-100.00,SE,143,5.0,9.0,91,0.00,,,-99.99,1.000000,,2013-12-08 12:02:00,
2013-12-08 03:12:00,27.0,25.0,-100.00,SE,143,5.0,9.0,91,0.00,,,-99.99,1.000000,,2013-12-08 12:12:00,
2013-12-08 03:22:00,27.0,25.0,-100.00,SE,143,5.0,9.0,91,0.00,,,-99.99,1.000000,,2013-12-08 12:22:00,
2013-12-08 03:52:00,30.0,27.0,-100.00,South,170,4.0,6.0,89,0.00,,,0.00,1.000000,,2013-12-08 12:52:00,
2013-12-08 04:01:00,30.0,27.0,-100.00,South,170,4.0,6.0,89,0.00,,,0.00,1.000000,,2013-12-08 13:01:00,
2013-12-08 04:11:00,30.0,27.0,-100.00,South,170,4.0,6.0,89,0.00,,,0.00,1.000000,,2013-12-08 13:11:00,
2013-12-08 04:21:00,30.0,27.0,-100.00,South,170,4.0,6.0,89,0.00,,,0.00,1.000000,,2013-12-08 13:21:00,
2013-12-08 04:52:00,30.0,25.0,-100.00,South,171,4.0,6.0,83,0.00,,,-99.99,1.000000,,2013-12-08 13:52:00,
2013-12-08 05:02:00,30.0,25.0,-100.00,South,171,4.0,6.0,83,0.00,,,-99.99,1.000000,,2013-12-08 14:02:00,
2013-12-08 05:12:00,30.0,25.0,-100.00,South,171,4.0,6.0,83,0.00,,,-99.99,1.000000,,2013-12-08 14:12:00,
2013-12-08 05:22:00,30.0,25.0,-100.00,South,171,4.0,6.0,83,0.00,,,-99.99,1.000000,,2013-12-08 14:22:00,
2013-12-08 05:52:00,32.0,27.0,-100.00,SE,136,4.0,6.0,82,0.00,,,0.00,1.000000,,2013-12-08 14:52:00,
2013-12-08 06:02:00,32.0,27.0,-100.00,SE,136,4.0,6.0,82,0.00,,,0.00,1.000000,,2013-12-08 15:02:00,
2013-12-08 06:11:00,32.0,27.0,-100.00,SE,136,4.0,6.0,82,0.00,,,0.00,1.000000,,2013-12-08 15:11:00,
2013-12-08 06:21:00,32.0,27.0,-100.00,SE,136,4.0,6.0,82,0.00,,,0.00,1.000000,,2013-12-08 15:21:00,
2013-12-08 06:54:00,29.0,25.0,-100.00,SSE,156,4.0,6.0,85,0.00,,,0.00,1.000000,,2013-12-08 15:54:00,
2013-12-08 07:04:00,29.0,25.0,-100.00,SSE,156,4.0,6.0,85,0.00,,,0.00,1.000000,,2013-12-08 16:04:00,
2013-12-08 07:13:00,29.0,25.0,-100.00,SSE,156,4.0,6.0,85,0.00,,,0.00,1.000000,,2013-12-08 16:13:00,
2013-12-08 07:23:00,29.0,25.0,-100.00,SSE,156,4.0,6.0,85,0.00,,,0.00,1.000000,,2013-12-08 16:23:00,
2013-12-08 07:53:00,30.0,27.0,-100.00,South,175,3.0,7.0,88,0.00,,,0.00,1.000000,,2013-12-08 16:53:00,
2013-12-08 08:02:00,30.0,27.0,-100.00,South,175,3.0,7.0,88,0.00,,,0.00,1.000000,,2013-12-08 17:02:00,
2013-12-08 08:12:00,30.0,27.0,-100.00,South,175,3.0,7.0,88,0.00,,,0.00,1.000000,,2013-12-08 17:12:00,
2013-12-08 08:22:00,30.0,27.0,-100.00,South,175,3.0,7.0,88,0.00,,,0.00,1.000000,,2013-12-08 17:22:00,
2013-12-08 08:52:00,28.0,25.0,-100.00,SSW,213,3.0,6.0,90,0.00,,,0.00,1.000000,,2013-12-08 17:52:00,
2013-12-08 09:02:00,28.0,25.0,-100.00,SSW,213,3.0,6.0,90,0.00,,,0.00,1.000000,,2013-12-08 18:02:00,
2013-12-08 09:12:00,28.0,25.0,-100.00,SSW,213,3.0,6.0,90,0.00,,,0.00,1.000000,,2013-12-08 18:12:00,
2013-12-08 09:21:00,28.0,25.0,-100.00,SSW,213,3.0,6.0,90,0.00,,,0.00,1.000000,,2013-12-08 18:21:00,
2013-12-08 09:52:00,27.0,25.0,-100.00,South,181,3.0,7.0,91,0.00,,,0.00,1.000000,,2013-12-08 18:52:00,
2013-12-08 10:02:00,27.0,25.0,-100.00,South,181,3.0,7.0,91,0.00,,,0.00,1.000000,,2013-12-08 19:02:00,
2013-12-08 10:12:00,27.0,25.0,-100.00,South,181,3.0,7.0,91,0.00,,,0.00,1.000000,,2013-12-08 19:12:00,
2013-12-08 10:22:00,27.0,25.0,-100.00,South,181,3.0,7.0,91,0.00,,,0.00,1.000000,,2013-12-08 19:22:00,
2013-12-08 10:52:00,29.0,28.0,-100.00,NNE,21,3.0,6.0,95,0.00,,,0.00,2.000000,,2013-12-08 19:52:00,
2013-12-08 11:02:00,29.0,28.0,-100.00,NNE,21,3.0,6.0,95,0.00,,,0.00,2.000000,,2013-12-08 20:02:00,
2013-12-08 11:11:00,29.0,28.0,-100.00,NNE,21,3.0,6.0,95,0.00,,,0.00,2.000000,,2013-12-08 20:11:00,
2013-12-08 11:21:00,29.0,28.0,-100.00,NNE,21,3.0,6.0,95,0.00,,,0.00,2.000000,,2013-12-08 20:21:00,
2013-12-08 11:52:00,26.0,22.0,-100.00,SSE,157,5.0,6.0,86,0.00,,,0.00,22.000000,,2013-12-08 20:52:00,
2013-12-08 12:02:00,26.0,22.0,-100.00,SSE,157,5.0,6.0,86,0.00,,,0.00,22.000000,,2013-12-08 21:02:00,
2013-12-08 12:11:00,26.0,22.0,-100.00,SSE,157,5.0,6.0,86,0.00,,,0.00,22.000000,,2013-12-08 21:11:00,
2013-12-08 12:22:00,26.0,22.0,-100.00,SSE,157,5.0,6.0,86,0.00,,,0.00,22.000000,,2013-12-08 21:22:00,
2013-12-08 12:53:00,29.0,27.0,-100.00,SE,133,4.0,8.0,92,0.00,,,0.00,35.000000,,2013-12-08 21:53:00,
2013-12-08 13:03:00,29.0,27.0,-100.00,SE,133,4.0,8.0,92,0.00,,,0.00,35.000000,,2013-12-08 22:03:00,
2013-12-08 13:13:00,29.0,27.0,-100.00,SE,133,4.0,8.0,92,0.00,,,0.00,35.000000,,2013-12-08 22:13:00,
2013-12-08 13:23:00,29.0,27.0,-100.00,SE,133,4.0,8.0,92,0.00,,,0.00,35.000000,,2013-12-08 22:23:00,
2013-12-08 13:53:00,28.0,25.0,-100.00,South,184,4.0,6.0,89,0.00,,,0.00,31.000000,,2013-12-08 22:53:00,
2013-12-08 14:03:00,28.0,25.0,-100.00,South,184,4.0,6.0,89,0.00,,,0.00,31.000000,,2013-12-08 23:03:00,
2013-12-08 14:12:00,28.0,25.0,-100.00,South,184,4.0,6.0,89,0.00,,,0.00,31.000000,,2013-12-08 23:12:00,
2013-12-08 14:22:00,28.0,25.0,-100.00,South,184,4.0,6.0,89,0.00,,,0.00,31.000000,,2013-12-08 23:22:00,
2013-12-08 14:53:00,28.0,25.0,-100.00,SSE,163,4.0,5.0,90,0.00,,,0.00,17.000000,,2013-12-08 23:53:00,
2013-12-08 15:02:00,28.0,25.0,-100.00,SSE,163,4.0,5.0,90,0.00,,,0.00,17.000000,,2013-12-09 00:02:00,
2013-12-08 15:11:00,28.0,25.0,-100.00,SSE,163,4.0,5.0,90,0.00,,,0.00,17.000000,,2013-12-09 00:11:00,
2013-12-08 15:21:00,28.0,25.0,-100.00,SSE,163,4.0,5.0,90,0.00,,,0.00,17.000000,,2013-12-09 00:21:00,
2013-12-08 15:52:00,27.0,26.0,-100.00,ESE,104,3.0,5.0,94,0.00,,,0.00,5.000000,,2013-12-09 00:52:00,
2013-12-08 16:02:00,27.0,26.0,-100.00,ESE,104,3.0,5.0,94,0.00,,,0.00,5.000000,,2013-12-09 01:02:00,
2013-12-08 16:11:00,27.0,26.0,-100.00,ESE,104,3.0,5.0,94,0.00,,,0.00,5.000000,,2013-12-09 01:11:00,
2013-12-08 16:21:00,27.0,26.0,-100.00,ESE,104,3.0,5.0,94,0.00,,,0.00,5.000000,,2013-12-09 01:21:00,
2013-12-08 16:52:00,27.0,26.0,-100.00,East,100,4.0,6.0,95,0.00,,,0.00,1.000000,,2013-12-09 01:52:00,
2013-12-08 17:02:00,27.0,26.0,-100.00,East,100,4.0,6.0,95,0.00,,,0.00,1.000000,,2013-12-09 02:02:00,
2013-12-08 17:11:00,27.0,26.0,-100.00,East,100,4.0,6.0,95,0.00,,,0.00,1.000000,,2013-12-09 02:11:00,
2013-12-08 17:21:00,27.0,26.0,-100.00,East,100,4.0,6.0,95,0.00,,,0.00,1.000000,,2013-12-09 02:21:00,
2013-12-08 17:53:00,27.0,26.0,-100.00,SSE,151,4.0,6.0,97,0.00,,,0.00,1.000000,,2013-12-09 02:53:00,
2013-12-08 18:02:00,27.0,26.0,-100.00,SSE,151,4.0,6.0,97,0.00,,,0.00,1.000000,,2013-12-09 03:02:00,
2013-12-08 18:11:00,27.0,26.0,-100.00,SSE,151,4.0,6.0,97,0.00,,,0.00,1.000000,,2013-12-09 03:11:00,
2013-12-08 18:21:00,27.0,26.0,-100.00,SSE,151,4.0,6.0,97,0.00,,,0.00,1.000000,,2013-12-09 03:21:00,
2013-12-08 18:54:00,29.0,27.0,-100.00,East,84,3.0,6.0,94,0.00,,,0.00,1.000000,,2013-12-09 03:54:00,
2013-12-08 19:03:00,29.0,27.0,-100.00,East,84,3.0,6.0,94,0.00,,,0.00,1.000000,,2013-12-09 04:03:00,
2013-12-08 19:13:00,29.0,27.0,-100.00,East,84,3.0,6.0,94,0.00,,,0.00,1.000000,,2013-12-09 04:13:00,
2013-12-08 19:22:00,29.0,27.0,-100.00,East,84,3.0,6.0,94,0.00,,,0.00,1.000000,,2013-12-09 04:22:00,
2013-12-08 19:53:00,28.0,26.0,-100.00,East,79,4.0,7.0,93,0.00,,,0.00,1.000000,,2013-12-09 04:53:00,
2013-12-08 20:02:00,28.0,26.0,-100.00,East,79,4.0,7.0,93,0.00,,,0.00,1.000000,,2013-12-09 05:02:00,
2013-12-08 20:12:00,28.0,26.0,-100.00,East,79,4.0,7.0,93,0.00,,,0.00,1.000000,,2013-12-09 05:12:00,
2013-12-08 20:23:00,28.0,26.0,-100.00,East,79,4.0,7.0,93,0.00,,,0.00,1.000000,,2013-12-09 05:23:00,
2013-12-08 20:53:00,27.0,24.0,-100.00,ESE,116,2.0,5.0,90,0.00,,,0.00,1.000000,,2013-12-09 05:53:00,
2013-12-08 21:02:00,27.0,24.0,-100.00,ESE,116,2.0,5.0,90,0.00,,,0.00,1.000000,,2013-12-09 06:02:00,
2013-12-08 21:12:00,27.0,24.0,-100.00,ESE,116,2.0,5.0,90,0.00,,,0.00,1.000000,,2013-12-09 06:12:00,
2013-12-08 21:21:00,27.0,24.0,-100.00,ESE,116,2.0,5.0,90,0.00,,,0.00,1.000000,,2013-12-09 06:21:00,
2013-12-08 21:52:00,24.0,23.0,-100.00,SSE,161,4.0,6.0,94,0.00,,,0.00,1.000000,,2013-12-09 06:52:00,
2013-12-08 22:02:00,24.0,23.0,-100.00,SSE,161,4.0,6.0,94,0.00,,,0.00,1.000000,,2013-12-09 07:02:00,
2013-12-08 22:11:00,24.0,23.0,-100.00,SSE,161,4.0,6.0,94,0.00,,,0.00,1.000000,,2013-12-09 07:11:00,
2013-12-08 22:22:00,24.0,23.0,-100.00,SSE,161,4.0,6.0,94,0.00,,,0.00,1.000000,,2013-12-09 07:22:00,
2013-12-08 22:52:00,24.0,23.0,-100.00,SE,140,3.0,5.0,96,0.00,,,0.00,1.000000,,2013-12-09 07:52:00,
2013-12-08 23:02:00,24.0,23.0,-100.00,SE,140,3.0,5.0,96,0.00,,,0.00,1.000000,,2013-12-09 08:02:00,
2013-12-08 23:11:00,24.0,23.0,-100.00,SE,140,3.0,5.0,96,0.00,,,0.00,1.000000,,2013-12-09 08:11:00,
2013-12-08 23:21:00,24.0,23.0,-100.00,SE,140,3.0,5.0,96,0.00,,,0.00,1.000000,,2013-12-09 08:21:00,
2013-12-08 23:52:00,24.0,23.0,-100.00,South,182,4.0,6.0,95,0.00,,,-99.99,1.000000,,2013-12-09 08:52:00,